createdAt,value
2018-09-08T00:02:26.197Z,59.10
2018-09-08T00:04:56.113Z,59.20
2018-09-08T00:07:32.107Z,59.20
2018-09-08T00:10:04.269Z,58.40
2018-09-08T00:12:37.908Z,58.40
2018-09-08T00:15:14.822Z,58.00
2018-09-08T00:17:52.068Z,58.00
2018-09-08T00:20:30.702Z,57.70
2018-09-08T00:23:06.697Z,57.40
2018-09-08T00:25:45.027Z,57.50
2018-09-08T00:28:25.121Z,57.00
2018-09-08T00:30:55.106Z,56.50
2018-09-08T00:33:25.125Z,56.50
2018-09-08T00:35:55.590Z,56.00
2018-09-08T00:38:25.669Z,55.60
2018-09-08T00:40:55.595Z,55.60
2018-09-08T00:43:25.600Z,55.50
2018-09-08T00:45:55.649Z,54.70
2018-09-08T00:48:25.653Z,55.10
2018-09-08T00:50:55.668Z,55.40
2018-09-08T00:53:25.596Z,56.40
2018-09-08T00:55:55.700Z,56.10
2018-09-08T00:58:25.629Z,56.80
2018-09-08T01:00:55.692Z,55.20
2018-09-08T01:03:25.689Z,55.20
2018-09-08T01:05:55.742Z,56.20
2018-09-08T01:08:25.683Z,57.10
2018-09-08T01:10:55.740Z,57.70
2018-09-08T01:13:25.685Z,58.20
2018-09-08T01:15:57.000Z,58.30
2018-09-08T01:18:26.991Z,58.80
2018-09-08T01:20:57.190Z,59.50
2018-09-08T01:23:27.164Z,59.70
2018-09-08T01:25:57.156Z,60.60
2018-09-08T01:28:27.110Z,60.20
2018-09-08T01:30:58.002Z,59.30
2018-09-08T01:33:28.023Z,59.30
2018-09-08T01:35:58.212Z,58.60
2018-09-08T01:38:28.275Z,58.80
2018-09-08T01:40:58.247Z,59.00
2018-09-08T01:43:28.154Z,58.40
2018-09-08T01:45:58.118Z,57.90
2018-09-08T01:48:28.220Z,59.10
2018-09-08T01:50:58.197Z,59.10
2018-09-08T01:53:28.114Z,59.10
2018-09-08T01:55:58.146Z,59.80
2018-09-08T01:58:28.140Z,59.70
2018-09-08T02:00:58.083Z,59.70
2018-09-08T02:03:28.087Z,59.70
2018-09-08T02:05:58.068Z,60.00
2018-09-08T02:08:28.078Z,60.40
2018-09-08T02:10:58.094Z,60.80
2018-09-08T02:13:28.088Z,60.70
2018-09-08T02:15:58.084Z,61.00
2018-09-08T02:18:28.037Z,61.10
2018-09-08T02:20:58.039Z,61.20
2018-09-08T02:23:27.971Z,61.40
2018-09-08T02:25:58.241Z,61.30
2018-09-08T02:28:35.918Z,61.10
2018-09-08T02:31:08.487Z,60.90
2018-09-08T02:33:46.909Z,61.10
2018-09-08T02:36:21.893Z,61.00
2018-09-08T02:38:54.804Z,61.60
2018-09-08T02:41:24.712Z,61.40
2018-09-08T02:43:54.730Z,61.20
2018-09-08T02:46:24.829Z,61.00
2018-09-08T02:48:55.431Z,60.90
2018-09-08T02:51:23.986Z,61.00
2018-09-08T02:53:52.515Z,60.50
2018-09-08T02:56:21.103Z,60.50
2018-09-08T02:58:51.979Z,59.80
2018-09-08T03:01:20.919Z,59.50
2018-09-08T03:03:49.473Z,59.30
2018-09-08T03:06:18.515Z,59.80
2018-09-08T03:08:48.165Z,59.70
2018-09-08T03:11:19.332Z,59.10
2018-09-08T03:13:48.720Z,59.20
2018-09-08T03:16:24.981Z,59.70
2018-09-08T03:18:53.510Z,59.90
2018-09-08T03:21:23.032Z,59.50
2018-09-08T03:23:51.855Z,60.00
2018-09-08T03:26:20.728Z,61.20
2018-09-08T03:28:51.033Z,60.70
2018-09-08T03:31:20.271Z,60.80
2018-09-08T03:33:49.608Z,60.70
2018-09-08T03:36:22.066Z,60.70
2018-09-08T03:38:51.051Z,60.50
2018-09-08T03:41:23.591Z,60.80
2018-09-08T03:43:52.308Z,61.00
2018-09-08T03:46:20.887Z,61.20
2018-09-08T03:48:49.944Z,61.20
2018-09-08T03:51:20.207Z,61.60
2018-09-08T03:53:49.318Z,61.50
2018-09-08T03:56:19.639Z,61.70
2018-09-08T03:58:48.685Z,61.50
2018-09-08T04:01:18.402Z,61.80
2018-09-08T04:03:49.702Z,62.60
2018-09-08T04:06:20.735Z,63.30
2018-09-08T04:08:51.933Z,63.50
2018-09-08T04:14:20.512Z,63.40
2018-09-08T04:16:50.835Z,63.40
2018-09-08T04:19:21.412Z,63.70
2018-09-08T04:21:51.831Z,64.20
2018-09-08T04:24:21.991Z,64.70
2018-09-08T04:26:53.783Z,64.50
2018-09-08T04:29:23.997Z,65.10
2018-09-08T04:31:53.922Z,65.20
2018-09-08T04:34:23.927Z,65.60
2018-09-08T04:36:53.943Z,65.80
2018-09-08T04:39:24.388Z,65.50
2018-09-08T04:41:54.411Z,65.10
2018-09-08T04:44:24.354Z,65.00
2018-09-08T04:46:54.547Z,64.80
2018-09-08T04:49:24.564Z,64.60
2018-09-08T04:51:54.466Z,63.90
2018-09-08T04:54:24.466Z,64.50
2018-09-08T04:56:58.670Z,64.50
2018-09-08T04:59:28.714Z,64.30
2018-09-08T05:01:58.717Z,64.30
2018-09-08T05:04:28.966Z,64.20
2018-09-08T05:06:59.027Z,64.80
2018-09-08T05:09:29.004Z,64.40
2018-09-08T05:12:00.184Z,64.50
2018-09-08T05:14:30.219Z,64.50
2018-09-08T05:17:00.904Z,64.40
2018-09-08T05:19:31.019Z,63.80
2018-09-08T05:22:01.548Z,63.60
2018-09-08T05:24:31.841Z,63.90
2018-09-08T05:27:02.066Z,64.20
2018-09-08T05:29:32.011Z,64.50
2018-09-08T05:32:02.135Z,64.70
2018-09-08T05:34:32.704Z,64.40
2018-09-08T05:37:03.885Z,64.10
2018-09-08T05:39:34.124Z,64.00
2018-09-08T05:42:07.163Z,64.10
2018-09-08T05:44:38.380Z,63.60
2018-09-08T05:47:11.414Z,63.40
2018-09-08T05:49:48.585Z,63.20
2018-09-08T05:52:20.908Z,63.40
2018-09-08T05:54:51.622Z,63.50
2018-09-08T05:57:22.185Z,63.50
2018-09-08T05:59:52.380Z,63.70
2018-09-08T06:02:22.468Z,63.60
2018-09-08T06:04:52.512Z,63.60
2018-09-08T06:07:22.492Z,63.50
2018-09-08T06:09:52.575Z,63.60
2018-09-08T06:12:22.503Z,62.90
2018-09-08T06:14:52.651Z,62.50
2018-09-08T06:17:24.366Z,61.90
2018-09-08T06:19:54.489Z,61.50
2018-09-08T06:22:24.480Z,60.90
2018-09-08T06:24:54.406Z,60.20
2018-09-08T06:27:24.392Z,59.60
2018-09-08T06:29:55.141Z,59.20
2018-09-08T06:32:25.289Z,58.70
2018-09-08T06:34:55.915Z,56.30
2018-09-08T06:37:25.905Z,55.20
2018-09-08T06:39:56.019Z,54.90
2018-09-08T06:42:26.065Z,54.60
2018-09-08T06:44:56.086Z,54.40
2018-09-08T06:47:26.238Z,55.10
2018-09-08T06:49:56.315Z,55.10
2018-09-08T06:52:26.309Z,54.90
2018-09-08T06:54:56.384Z,54.70
2018-09-08T06:57:26.479Z,54.30
2018-09-08T06:59:56.529Z,53.80
2018-09-08T07:02:26.544Z,53.70
2018-09-08T07:04:56.657Z,52.50
2018-09-08T07:07:26.613Z,51.90
2018-09-08T07:09:56.552Z,50.60
2018-09-08T07:12:26.576Z,49.60
2018-09-08T07:14:56.595Z,49.20
2018-09-08T07:17:26.505Z,48.80
2018-09-08T07:19:56.492Z,47.10
2018-09-08T07:22:26.513Z,47.20
2018-09-08T07:24:56.521Z,46.50
2018-09-08T07:27:26.491Z,46.10
2018-09-08T07:29:56.507Z,44.50
2018-09-08T07:32:26.458Z,43.90
2018-09-08T07:34:56.436Z,43.80
2018-09-08T07:37:26.415Z,42.50
2018-09-08T07:39:56.488Z,43.40
2018-09-08T07:42:26.530Z,42.60
2018-09-08T07:44:56.481Z,42.80
2018-09-08T07:47:26.557Z,43.20
2018-09-08T07:49:56.524Z,42.80
2018-09-08T07:52:26.505Z,42.90
2018-09-08T07:54:56.440Z,42.00
2018-09-08T07:57:26.397Z,41.80
2018-09-08T07:59:56.327Z,41.10
2018-09-08T08:02:26.324Z,41.40
2018-09-08T08:04:56.276Z,41.30
2018-09-08T08:07:26.284Z,38.60
2018-09-08T08:09:56.245Z,38.70
2018-09-08T08:12:26.258Z,38.80
2018-09-08T08:14:56.201Z,38.80
2018-09-08T08:17:26.214Z,39.00
2018-09-08T08:19:56.234Z,38.90
2018-09-08T08:22:26.215Z,38.40
2018-09-08T08:24:56.205Z,37.50
2018-09-08T08:27:26.188Z,37.60
2018-09-08T08:29:56.103Z,38.60
2018-09-08T08:32:26.056Z,37.30
2018-09-08T08:34:56.108Z,36.70
2018-09-08T08:37:26.093Z,36.80
2018-09-08T08:39:56.146Z,37.30
2018-09-08T08:42:26.606Z,36.50
2018-09-08T08:44:56.656Z,36.00
2018-09-08T08:47:26.595Z,35.60
2018-09-08T08:50:14.116Z,34.80
2018-09-08T08:53:01.431Z,34.90
2018-09-08T08:55:31.650Z,35.00
2018-09-08T08:58:02.627Z,34.50
2018-09-08T09:00:33.310Z,33.40
2018-09-08T09:03:03.329Z,34.00
2018-09-08T09:05:33.371Z,33.40
2018-09-08T09:08:03.352Z,32.90
2018-09-08T09:10:34.335Z,33.80
2018-09-08T09:13:05.478Z,32.50
2018-09-08T09:15:36.521Z,33.00
2018-09-08T09:18:07.210Z,32.90
2018-09-08T09:20:54.439Z,32.50
2018-09-08T09:25:43.819Z,32.70
2018-09-08T09:28:16.286Z,31.80
2018-09-08T09:30:47.758Z,32.60
2018-09-08T09:33:18.910Z,33.20
2018-09-08T09:35:50.028Z,31.50
2018-09-08T09:38:20.136Z,32.00
2018-09-08T09:40:50.412Z,32.90
2018-09-08T09:43:20.557Z,31.10
2018-09-08T09:45:50.677Z,32.30
2018-09-08T09:48:21.469Z,31.30
2018-09-08T09:50:51.478Z,31.20
2018-09-08T09:53:21.555Z,32.10
2018-09-08T09:55:51.511Z,31.80
2018-09-08T09:58:21.440Z,31.60
2018-09-08T10:01:12.379Z,31.40
2018-09-08T10:03:45.220Z,31.60
2018-09-08T10:06:15.283Z,32.50
2018-09-08T10:08:52.063Z,31.70
2018-09-08T10:11:22.012Z,31.90
2018-09-08T10:13:52.102Z,31.90
2018-09-08T10:16:22.060Z,32.00
2018-09-08T10:18:52.070Z,31.40
2018-09-08T10:21:22.088Z,32.10
2018-09-08T10:24:04.338Z,31.80
2018-09-08T10:26:22.119Z,32.00
2018-09-08T10:28:52.178Z,31.60
2018-09-08T10:31:22.232Z,31.00
2018-09-08T10:33:52.194Z,30.30
2018-09-08T10:36:22.086Z,30.80
2018-09-08T10:38:52.036Z,30.20
2018-09-08T10:41:22.149Z,30.10
2018-09-08T10:43:52.115Z,30.80
2018-09-08T10:46:22.071Z,31.50
2018-09-08T10:48:52.100Z,31.80
2018-09-08T10:51:47.217Z,30.50
2018-09-08T10:54:17.872Z,30.50
2018-09-08T10:56:48.656Z,30.80
2018-09-08T10:59:19.609Z,31.30
2018-09-08T11:01:50.145Z,30.60
2018-09-08T11:04:20.055Z,31.00
2018-09-08T11:06:50.149Z,30.90
2018-09-08T11:09:20.071Z,29.80
2018-09-08T11:11:50.038Z,30.40
2018-09-08T11:14:19.970Z,30.00
2018-09-08T11:16:49.980Z,29.90
2018-09-08T11:19:19.983Z,29.50
2018-09-08T11:21:49.947Z,29.70
2018-09-08T11:24:19.871Z,30.50
2018-09-08T11:26:49.956Z,30.10
2018-09-08T11:29:19.945Z,30.90
2018-09-08T11:31:49.901Z,30.00
2018-09-08T11:34:19.843Z,30.20
2018-09-08T11:36:49.869Z,30.30
2018-09-08T11:39:19.933Z,29.20
2018-09-08T11:41:49.897Z,30.20
2018-09-08T11:44:19.880Z,29.90
2018-09-08T11:46:49.833Z,30.20
2018-09-08T11:49:19.766Z,30.00
2018-09-08T11:51:49.844Z,30.50
2018-09-08T11:54:19.866Z,30.00
2018-09-08T11:56:49.813Z,30.00
2018-09-08T11:59:19.823Z,29.90
2018-09-08T12:01:49.818Z,29.50
2018-09-08T12:04:19.733Z,30.20
2018-09-08T12:06:49.727Z,30.30
2018-09-08T12:09:19.691Z,29.40
2018-09-08T12:11:49.923Z,29.40
2018-09-08T12:14:19.835Z,29.40
2018-09-08T12:16:49.824Z,30.00
2018-09-08T12:19:19.856Z,30.30
2018-09-08T12:21:49.788Z,30.80
2018-09-08T12:24:19.793Z,30.30
2018-09-08T12:26:49.834Z,30.00
2018-09-08T12:29:19.756Z,29.40
2018-09-08T12:31:49.721Z,29.10
2018-09-08T12:34:19.666Z,29.10
2018-09-08T12:36:49.679Z,29.00
2018-09-08T12:39:19.593Z,28.90
2018-09-08T12:41:49.717Z,28.80
2018-09-08T12:44:19.869Z,28.90
2018-09-08T12:46:50.465Z,29.10
2018-09-08T12:49:20.464Z,29.20
2018-09-08T12:51:50.505Z,29.10
2018-09-08T12:54:20.473Z,28.90
2018-09-08T12:56:50.456Z,28.90
2018-09-08T12:59:20.543Z,29.40
2018-09-08T13:01:50.449Z,28.70
2018-09-08T13:04:20.472Z,29.20
2018-09-08T13:06:50.518Z,29.30
2018-09-08T13:09:20.438Z,28.70
2018-09-08T13:11:50.366Z,28.80
2018-09-08T13:14:20.396Z,28.80
2018-09-08T13:16:50.277Z,29.00
2018-09-08T13:19:20.219Z,29.10
2018-09-08T13:21:50.319Z,28.90
2018-09-08T13:24:20.254Z,28.90
2018-09-08T13:26:50.232Z,28.90
2018-09-08T13:29:20.191Z,28.50
2018-09-08T13:31:50.227Z,29.00
2018-09-08T13:34:20.305Z,28.00
2018-09-08T13:36:50.276Z,27.90
2018-09-08T13:39:20.281Z,27.40
2018-09-08T13:41:50.206Z,28.50
2018-09-08T13:44:20.133Z,28.80
2018-09-08T13:46:50.074Z,28.60
2018-09-08T13:49:20.181Z,28.70
2018-09-08T13:51:50.199Z,28.80
2018-09-08T13:54:20.135Z,28.60
2018-09-08T13:56:50.152Z,28.40
2018-09-08T13:59:20.141Z,28.40
2018-09-08T14:01:50.226Z,28.50
2018-09-08T14:04:20.239Z,28.80
2018-09-08T14:06:50.274Z,28.70
2018-09-08T14:09:20.212Z,28.30
2018-09-08T14:11:50.269Z,28.50
2018-09-08T14:14:20.328Z,29.20
2018-09-08T14:16:50.337Z,28.50
2018-09-08T14:19:20.287Z,29.20
2018-09-08T14:21:50.289Z,28.50
2018-09-08T14:24:20.297Z,28.50
2018-09-08T14:26:50.287Z,28.60
2018-09-08T14:29:20.311Z,28.70
2018-09-08T14:31:50.263Z,28.80
2018-09-08T14:34:20.294Z,28.30
2018-09-08T14:36:51.116Z,28.90
2018-09-08T14:39:21.033Z,27.80
2018-09-08T14:41:51.016Z,28.80
2018-09-08T14:44:21.050Z,28.70
2018-09-08T14:46:51.048Z,28.70
2018-09-08T14:49:21.026Z,28.80
2018-09-08T14:51:51.027Z,28.80
2018-09-08T14:54:21.017Z,28.80
2018-09-08T14:56:51.452Z,28.80
2018-09-08T14:59:21.450Z,28.20
2018-09-08T15:01:51.416Z,28.30
2018-09-08T15:04:22.473Z,28.20
2018-09-08T15:06:52.422Z,28.60
2018-09-08T15:09:22.525Z,28.10
2018-09-08T15:11:52.557Z,28.20
2018-09-08T15:14:22.607Z,27.90
2018-09-08T15:16:52.544Z,27.60
2018-09-08T15:19:22.628Z,27.90
2018-09-08T15:21:52.662Z,27.20
2018-09-08T15:24:22.738Z,26.90
2018-09-08T15:26:52.762Z,27.30
2018-09-08T15:29:22.899Z,27.10
2018-09-08T15:31:52.914Z,27.90
2018-09-08T15:34:23.032Z,27.70
2018-09-08T15:36:53.021Z,28.10
2018-09-08T15:39:23.012Z,27.90
2018-09-08T15:41:53.021Z,28.50
2018-09-08T15:44:22.991Z,28.40
2018-09-08T15:46:53.099Z,28.30
2018-09-08T15:49:23.124Z,28.20
2018-09-08T15:51:53.144Z,29.40
2018-09-08T15:54:23.150Z,28.70
2018-09-08T15:56:53.184Z,29.40
2018-09-08T15:59:23.210Z,29.60
2018-09-08T16:01:53.209Z,28.70
2018-09-08T16:04:23.219Z,28.80
2018-09-08T16:06:53.249Z,28.30
2018-09-08T16:09:23.235Z,29.70
2018-09-08T16:11:53.238Z,28.20
2018-09-08T16:14:23.422Z,28.80
2018-09-08T16:16:53.561Z,29.30
2018-09-08T16:19:23.556Z,28.90
2018-09-08T16:21:53.556Z,29.20
2018-09-08T16:24:23.538Z,28.90
2018-09-08T16:26:53.566Z,28.30
2018-09-08T16:29:23.629Z,28.40
2018-09-08T16:31:53.650Z,28.40
2018-09-08T16:34:23.672Z,28.40
2018-09-08T16:36:53.755Z,28.40
2018-09-08T16:39:24.293Z,28.40
2018-09-08T16:41:54.278Z,28.50
2018-09-08T16:44:24.348Z,28.30
2018-09-08T16:46:54.479Z,28.90
2018-09-08T16:49:24.550Z,29.20
2018-09-08T16:51:54.541Z,29.90
2018-09-08T16:54:24.446Z,29.90
2018-09-08T16:56:54.459Z,30.00
2018-09-08T16:59:24.437Z,30.00
2018-09-08T17:01:54.429Z,30.90
2018-09-08T17:04:24.442Z,31.40
2018-09-08T17:06:54.506Z,31.30
2018-09-08T17:09:24.568Z,31.50
2018-09-08T17:11:54.547Z,32.30
2018-09-08T17:14:24.579Z,32.90
2018-09-08T17:16:54.619Z,32.40
2018-09-08T17:19:24.623Z,32.80
2018-09-08T17:21:54.692Z,33.10
2018-09-08T17:24:24.646Z,33.00
2018-09-08T17:26:54.671Z,32.90
2018-09-08T17:29:24.720Z,33.40
2018-09-08T17:31:54.697Z,33.50
2018-09-08T17:34:24.809Z,34.60
2018-09-08T17:36:54.837Z,34.30
2018-09-08T17:39:24.894Z,34.80
2018-09-08T17:41:54.903Z,34.80
2018-09-08T17:44:24.882Z,34.70
2018-09-08T17:46:54.917Z,34.60
2018-09-08T17:49:25.113Z,34.60
2018-09-08T17:51:55.247Z,35.30
2018-09-08T17:54:25.217Z,35.70
2018-09-08T17:56:55.336Z,35.40
2018-09-08T17:59:25.568Z,35.50
2018-09-08T18:01:56.259Z,35.80
2018-09-08T18:04:26.314Z,36.00
2018-09-08T18:07:02.576Z,36.40
2018-09-08T18:09:32.839Z,37.60
2018-09-08T18:12:03.566Z,37.20
2018-09-08T18:14:33.703Z,37.80
2018-09-08T18:17:03.881Z,37.80
2018-09-08T18:19:33.958Z,37.60
2018-09-08T18:22:03.979Z,37.60
2018-09-08T18:24:33.938Z,38.40
2018-09-08T18:27:03.907Z,38.40
2018-09-08T18:29:33.961Z,38.30
2018-09-08T18:32:03.929Z,38.60
2018-09-08T18:34:33.915Z,38.60
2018-09-08T18:37:03.976Z,38.50
2018-09-08T18:39:33.973Z,38.30
2018-09-08T18:42:04.377Z,38.20
2018-09-08T18:44:34.392Z,38.50
2018-09-08T18:47:04.434Z,38.50
2018-09-08T18:49:34.597Z,38.70
2018-09-08T18:52:04.659Z,38.80
2018-09-08T18:54:34.681Z,39.00
2018-09-08T18:57:04.735Z,40.60
2018-09-08T18:59:34.704Z,42.00
2018-09-08T19:02:05.029Z,43.80
2018-09-08T19:04:35.124Z,44.90
2018-09-08T19:07:05.160Z,46.30
2018-09-08T19:09:35.196Z,46.20
2018-09-08T19:12:05.236Z,46.40
2018-09-08T19:14:40.550Z,46.00
2018-09-08T19:17:10.585Z,45.60
2018-09-08T19:19:40.669Z,45.70
2018-09-08T19:22:11.445Z,46.90
2018-09-08T19:24:43.496Z,46.00
2018-09-08T19:27:14.172Z,46.00
2018-09-08T19:29:48.926Z,45.20
2018-09-08T19:32:20.133Z,44.60
2018-09-08T19:34:55.555Z,45.30
2018-09-08T19:37:26.054Z,45.00
2018-09-08T19:39:56.103Z,44.60
2018-09-08T19:42:26.113Z,44.10
2018-09-08T19:44:56.228Z,44.20
2018-09-08T19:47:31.552Z,44.30
2018-09-08T19:50:01.615Z,44.40
2018-09-08T19:52:36.992Z,45.10
2018-09-08T19:55:07.093Z,45.70
2018-09-08T20:00:34.967Z,46.00
2018-09-08T20:03:05.010Z,46.30
2018-09-08T20:05:35.307Z,46.10
2018-09-08T20:08:05.294Z,46.80
2018-09-08T20:10:35.330Z,47.20
2018-09-08T20:13:05.411Z,47.70
2018-09-08T20:15:35.469Z,47.30
2018-09-08T20:18:05.543Z,46.50
2018-09-08T20:20:35.542Z,46.40
2018-09-08T20:23:05.523Z,49.40
2018-09-08T20:25:35.535Z,50.50
2018-09-08T20:28:05.540Z,50.80
2018-09-08T20:30:35.508Z,51.30
2018-09-08T20:33:05.551Z,52.00
2018-09-08T20:35:35.626Z,52.20
2018-09-08T20:38:06.058Z,52.00
2018-09-08T20:40:36.289Z,52.40
2018-09-08T20:43:06.352Z,52.40
2018-09-08T20:45:36.424Z,52.30
2018-09-08T20:48:06.487Z,53.00
2018-09-08T20:50:36.558Z,52.90
2018-09-08T20:53:06.568Z,53.00
2018-09-08T20:55:36.653Z,53.20
2018-09-08T21:01:04.449Z,53.60
2018-09-08T21:03:34.422Z,53.50
2018-09-08T21:06:04.398Z,54.40
2018-09-08T21:08:37.010Z,54.40
2018-09-08T21:11:07.801Z,54.50
2018-09-08T21:13:37.836Z,54.50
2018-09-08T21:16:08.399Z,54.20
2018-09-08T21:18:38.584Z,54.30
2018-09-08T21:21:08.696Z,54.50
2018-09-08T21:23:39.537Z,55.00
2018-09-08T21:26:09.613Z,55.20
2018-09-08T21:28:39.654Z,55.60
2018-09-08T21:31:09.991Z,55.60
2018-09-08T21:33:40.242Z,55.00
2018-09-08T21:36:10.382Z,55.00
2018-09-08T21:38:40.397Z,54.70
2018-09-08T21:41:10.543Z,55.40
2018-09-08T21:43:40.598Z,55.40
2018-09-08T21:46:11.140Z,55.40
2018-09-08T21:48:41.885Z,55.40
2018-09-08T21:51:13.400Z,55.40
2018-09-08T21:53:43.976Z,55.70
2018-09-08T21:56:14.572Z,55.50
2018-09-08T21:58:45.412Z,56.00
2018-09-08T22:01:21.123Z,56.20
2018-09-08T22:03:51.720Z,56.30
2018-09-08T22:06:22.120Z,56.10
2018-09-08T22:08:52.150Z,56.00
2018-09-08T22:11:22.302Z,55.80
2018-09-08T22:13:52.331Z,55.70
2018-09-08T22:16:22.253Z,55.70
2018-09-08T22:18:52.332Z,55.70
2018-09-08T22:21:22.250Z,56.00
2018-09-08T22:23:52.493Z,55.90
2018-09-08T22:26:22.496Z,56.40
2018-09-08T22:28:52.458Z,56.00
2018-09-08T22:31:22.425Z,55.90
2018-09-08T22:33:52.476Z,56.00
2018-09-08T22:36:22.482Z,56.20
2018-09-08T22:38:52.559Z,56.30
2018-09-08T22:41:22.515Z,56.10
2018-09-08T22:43:52.506Z,56.10
2018-09-08T22:46:22.503Z,56.10
2018-09-08T22:48:52.560Z,56.00
2018-09-08T22:51:22.559Z,55.60
2018-09-08T22:53:52.535Z,54.90
2018-09-08T22:56:22.534Z,55.20
2018-09-08T22:58:52.643Z,55.30
2018-09-08T23:01:22.591Z,54.80
2018-09-08T23:03:52.717Z,54.80
2018-09-08T23:06:22.726Z,54.80
2018-09-08T23:08:52.679Z,54.80
2018-09-08T23:11:22.727Z,56.20
2018-09-08T23:13:52.763Z,57.00
2018-09-08T23:16:22.691Z,57.70
2018-09-08T23:18:52.820Z,57.20
2018-09-08T23:21:22.793Z,56.80
2018-09-08T23:23:52.771Z,57.20
2018-09-08T23:26:22.851Z,57.60
2018-09-08T23:28:52.936Z,57.60
2018-09-08T23:31:22.993Z,57.40
2018-09-08T23:33:53.013Z,57.60
2018-09-08T23:36:22.998Z,58.20
2018-09-08T23:38:53.079Z,58.00
2018-09-08T23:41:22.997Z,58.20
2018-09-08T23:43:53.055Z,57.70
2018-09-08T23:46:23.014Z,58.20
2018-09-08T23:48:52.964Z,57.50
2018-09-08T23:51:22.998Z,56.90
2018-09-08T23:53:52.964Z,56.80
2018-09-08T23:56:22.941Z,55.60
2018-09-08T23:58:52.948Z,54.90
